Etusivu
METAR-TAF:

METAR-TAF

Lentoasemat :

Nouakchottin kansainvälinen lentoasema

Nouakchott, Mauritania

Leveyspiiri: 18-18-36N, Pituuspiiri: 015-58-11W, korkeus merenpinnasta: 3 m

Tämänhetkinen sää

Tämä raportti tehtiin 43 minuuttia sitten, kello 06.30 UTC
Tuuli 7 kn pohjoisesta/koillisesta
Lämpötila 17°C
Kosteus 68%
Ilmanpaine 1013 hPa
Näkyvyys: 8000 m

METAR: GQNO 160630Z 02007KT 8000 NSC 17/11 Q1013 NOSIG

Aika: 07:13 (07:13 UTC)

Sääennuste

Tämä raportti tehtiin 1 tunti ja 53 minuuttia sitten, kello 05.20 UTC
Ennuste voimassa 16. päivästä klo 06 UTC - 17. päivään klo 12 UTC
Tuuli 10 kn pohjoisen/luoteesta
Näkyvyys: 8000 m
Ajoittain
16. päivästä klo 09 UTC - 16. päivään klo 14 UTC
Tuuli 8 kn koillisesta

TAF: GQNO 160520Z 1606/1712 34010KT 8000 NSC TEMPO 1609/1614 04008KT

Säähavainnot ja -ennusteet yli 4000 lentoasemalta (METAR- ja TAF-raportit).

Käytössä olevat sääasemat on merkitty karttaan keltaisilla ja punaisilla pisteillä.

Aseta hiiri pisteen päälle nähdäksesi sääaseman nimen.

Klikkaa sitten nähdäksesi säähavainnot ja -ennusteet.

Kartan vaihtaminen: klikkaa mustalla rastilla varustettuja vihreitä pisteitä, niin voit zoomata sisään; viivalla varustettua vihreää pistettä, niin voit zoomata ulos tai vihreitä nuolia, niin pääset viereisille kartoille.


METAR-TAF: